Decoded Metar for PAMY (MEKORYUK in AK, USA) (IATA:MYU) | Meteo·Mobile Aviation Weather
aviador You're here:

PAMY Decoded Metar

MEKORYUK in AK, USA
Report Time2018-12-14 23:56:00
UTC Time2018-12-15 00:33:16
Flight Rules vfr VFR
Wind040° at 09 kt
W.Decomp.*RWY 05: 8.3 kt HW 3.5 kt LCW
W.Rank040° ranks 4
Current wind is below 040° avg. (11.2)
Visibility9999 m
Phenomena:N/A
Clouds:Broken 047 Hf
Expected CloudBase > 2,000 ft AGL from Temp-Dew spread
Ceiling4,700 ft
Temp-8°C (ISA -23)
Dew Point-13°C (68% RH)
AAT-14.5°C
QNH996 hPa
Density Alt-2,188 ft
Elevation43 ft
Report Wrong Elevation
Raw Report
PAMY 142356Z AUTO 04009KT 10SM BKN047 M08/M13 A2942 RMK AO2 SLP964
60000 T10831133 11083 21100 50005 FZRANO $=

Extra information for PAMY:More info

Metar Taf Metar & Taf Last 4 Metars F.Rules Stats Wind Profile Meteogram Temp Stats Airport Information Weather charts Add Link Nearby VenuesMetar ALERT Operation Metar Decoded Social comments

AIRNAV info for PAMY